Time;durP1;ratioP1;P1;durP2;ratioP2;P2;SDS_P1;SDS_P2;PMS_P1;PMS_P2;Temp;Humidity;BMP_temperature;BMP_pressure;BME280_temperature;BME280_humidity;BME280_pressure;Samples;Min_cycle;Max_cycle;Signal;HPM_P1;HPM_P2
2021/07/13 00:00:00;;;;;;;74.13;35.67;;;;;;;;;;5014826;28;20041;-61
2021/07/13 00:02:27;;;;;;;72.40;35.90;;;;;;;;;;5032144;28;21110;-62
2021/07/13 00:04:55;;;;;;;71.68;33.92;;;;;;;;;;5014807;28;20124;-62
2021/07/13 00:07:23;;;;;;;69.05;35.28;;;;;;;;;;4984933;28;20029;-62
2021/07/13 00:09:52;;;;;;;67.25;36.17;;;;;;;;;;5016377;28;20122;-63
2021/07/13 00:12:17;;;;;;;67.88;34.75;;;;;;;;;;5001825;28;20044;-62
2021/07/13 00:14:45;;;;;;;75.35;35.58;;;;;;;;;;5032968;28;20668;-61
2021/07/13 00:17:12;;;;;;;76.00;37.38;;;;;;;;;;5034123;28;20024;-60
2021/07/13 00:19:40;;;;;;;69.10;35.97;;;;;;;;;;4998902;28;20091;-63
2021/07/13 00:22:08;;;;;;;69.25;35.95;;;;;;;;;;5016119;28;20036;-62
2021/07/13 00:24:33;;;;;;;65.40;34.80;;;;;;;;;;5015176;28;20090;-62
2021/07/13 00:26:59;;;;;;;62.70;33.88;;;;;;;;;;5015240;28;20400;-60
2021/07/13 00:29:24;;;;;;;62.53;32.70;;;;;;;;;;5030570;28;20029;-63
2021/07/13 00:31:49;;;;;;;58.92;32.22;;;;;;;;;;4998531;28;20036;-62
2021/07/13 00:34:17;;;;;;;67.15;31.67;;;;;;;;;;4988115;28;20037;-62
2021/07/13 00:36:42;;;;;;;64.22;32.88;;;;;;;;;;5037269;28;20156;-63
2021/07/13 00:39:10;;;;;;;64.63;32.05;;;;;;;;;;5017701;28;20048;-62
2021/07/13 00:41:39;;;;;;;64.60;31.85;;;;;;;;;;5034916;28;20055;-62
2021/07/13 00:44:04;;;;;;;64.03;32.38;;;;;;;;;;5034563;28;21954;-62
2021/07/13 00:46:45;;;;;;;61.67;32.33;;;;;;;;;;5019497;28;20112;-62
2021/07/13 00:49:11;;;;;;;63.80;32.45;;;;;;;;;;5018863;28;20028;-62
2021/07/13 00:51:39;;;;;;;64.18;32.55;;;;;;;;;;5005770;28;20036;-61
2021/07/13 00:54:08;;;;;;;63.53;31.95;;;;;;;;;;5035063;28;22074;-62
2021/07/13 00:56:38;;;;;;;60.00;30.75;;;;;;;;;;5034551;28;20025;-61
2021/07/13 00:59:08;;;;;;;67.22;33.50;;;;;;;;;;4997326;28;20045;-61
2021/07/13 01:01:36;;;;;;;58.92;31.40;;;;;;;;;;4987124;28;20036;-61
2021/07/13 01:04:03;;;;;;;68.13;33.45;;;;;;;;;;4999703;28;20040;-61
2021/07/13 01:06:51;;;;;;;67.97;33.78;;;;;;;;;;5035127;28;20155;-62
2021/07/13 01:09:49;;;;;;;79.22;34.17;;;;;;;;;;5017545;28;20927;-62
2021/07/13 01:12:35;;;;;;;70.45;34.80;;;;;;;;;;4974196;28;20128;-61
2021/07/13 01:15:05;;;;;;;72.25;34.90;;;;;;;;;;5036606;28;20047;-62
2021/07/13 01:17:43;;;;;;;70.25;34.80;;;;;;;;;;5017375;28;20032;-62
2021/07/13 01:20:14;;;;;;;88.47;37.92;;;;;;;;;;5020856;28;20043;-62
2021/07/13 01:22:45;;;;;;;77.53;35.50;;;;;;;;;;5018153;28;20029;-62
2021/07/13 01:25:26;;;;;;;87.55;36.55;;;;;;;;;;5020632;28;20067;-60
2021/07/13 01:28:02;;;;;;;82.15;37.45;;;;;;;;;;5036929;28;20036;-60
2021/07/13 01:30:32;;;;;;;76.97;38.08;;;;;;;;;;5036064;28;20037;-61
2021/07/13 01:33:16;;;;;;;76.25;37.50;;;;;;;;;;5035279;28;20048;-61
2021/07/13 01:35:44;;;;;;;78.53;37.10;;;;;;;;;;5016101;28;20033;-61
2021/07/13 01:38:10;;;;;;;76.43;37.05;;;;;;;;;;4996879;28;20033;-61
2021/07/13 01:40:36;;;;;;;83.10;37.97;;;;;;;;;;5036442;28;20032;-61
2021/07/13 01:43:04;;;;;;;83.60;37.10;;;;;;;;;;5036121;28;20340;-61
2021/07/13 01:45:34;;;;;;;82.72;38.15;;;;;;;;;;5015701;28;20132;-63
2021/07/13 01:48:03;;;;;;;72.22;35.50;;;;;;;;;;4998219;28;20477;-61
2021/07/13 01:50:30;;;;;;;74.63;35.03;;;;;;;;;;5034489;28;20094;-61
2021/07/13 01:52:56;;;;;;;77.93;35.75;;;;;;;;;;5017066;28;20041;-62
2021/07/13 01:55:26;;;;;;;62.75;32.67;;;;;;;;;;5018241;28;20029;-61
2021/07/13 01:57:57;;;;;;;67.80;33.70;;;;;;;;;;5033932;28;20037;-61
2021/07/13 02:00:25;;;;;;;68.30;34.58;;;;;;;;;;5000837;28;20070;-62
2021/07/13 02:02:51;;;;;;;78.18;34.08;;;;;;;;;;5015718;28;20723;-63
2021/07/13 02:05:19;;;;;;;68.53;33.58;;;;;;;;;;5002430;28;20044;-61
2021/07/13 02:07:49;;;;;;;70.78;34.38;;;;;;;;;;5033599;28;20039;-61
2021/07/13 02:10:16;;;;;;;63.65;32.53;;;;;;;;;;5035050;28;20029;-61
2021/07/13 02:12:44;;;;;;;62.72;31.98;;;;;;;;;;5005141;28;20064;-62
2021/07/13 02:15:10;;;;;;;74.15;32.85;;;;;;;;;;5033514;28;20056;-62
2021/07/13 02:17:35;;;;;;;71.72;35.63;;;;;;;;;;5035406;28;20488;-63
2021/07/13 02:20:08;;;;;;;68.97;32.85;;;;;;;;;;5015424;28;20032;-64
2021/07/13 02:22:39;;;;;;;71.43;34.08;;;;;;;;;;5032857;28;20029;-62
2021/07/13 02:25:08;;;;;;;65.53;33.35;;;;;;;;;;5034517;28;20110;-62
2021/07/13 02:27:34;;;;;;;64.13;33.63;;;;;;;;;;5032608;28;20028;-62
2021/07/13 02:30:04;;;;;;;76.63;35.13;;;;;;;;;;5035581;28;20440;-62
2021/07/13 02:32:38;;;;;;;69.60;34.60;;;;;;;;;;5033470;28;21165;-63
2021/07/13 02:35:09;;;;;;;73.88;34.28;;;;;;;;;;5003274;28;20617;-63
2021/07/13 02:37:51;;;;;;;72.72;35.80;;;;;;;;;;5015455;28;20033;-62
2021/07/13 02:40:23;;;;;;;68.55;34.20;;;;;;;;;;5017787;28;20640;-61
2021/07/13 02:42:53;;;;;;;71.57;35.92;;;;;;;;;;5003307;28;20036;-62
2021/07/13 02:45:21;;;;;;;70.53;34.97;;;;;;;;;;5002310;28;20044;-62
2021/07/13 02:47:51;;;;;;;77.90;34.72;;;;;;;;;;5016140;28;20024;-62
2021/07/13 02:50:17;;;;;;;77.85;36.00;;;;;;;;;;5033112;28;20033;-62
2021/07/13 02:52:46;;;;;;;70.05;36.05;;;;;;;;;;5033646;28;20067;-62
2021/07/13 02:55:18;;;;;;;72.32;34.90;;;;;;;;;;5033512;28;20029;-62
2021/07/13 02:57:45;;;;;;;75.88;36.05;;;;;;;;;;5034382;28;20723;-62
2021/07/13 03:00:13;;;;;;;68.88;34.20;;;;;;;;;;4999554;28;20745;-62
2021/07/13 03:02:44;;;;;;;78.00;35.53;;;;;;;;;;5014631;28;20075;-61
2021/07/13 03:05:13;;;;;;;75.40;37.00;;;;;;;;;;5030139;28;20033;-62
2021/07/13 03:07:44;;;;;;;71.13;35.15;;;;;;;;;;4994956;28;20060;-61
2021/07/13 03:10:11;;;;;;;90.65;38.38;;;;;;;;;;5032593;28;20135;-62
2021/07/13 03:12:39;;;;;;;91.63;40.45;;;;;;;;;;5000206;28;20041;-62
2021/07/13 03:15:09;;;;;;;90.25;40.72;;;;;;;;;;4983568;28;20033;-61
2021/07/13 03:17:38;;;;;;;96.20;40.33;;;;;;;;;;5015351;28;20017;-62
2021/07/13 03:20:06;;;;;;;91.15;39.47;;;;;;;;;;5013541;28;20722;-62
2021/07/13 03:22:37;;;;;;;93.20;41.75;;;;;;;;;;5033631;28;20033;-62
2021/07/13 03:25:04;;;;;;;94.68;40.20;;;;;;;;;;5033679;28;20044;-61
2021/07/13 03:27:32;;;;;;;98.68;40.25;;;;;;;;;;5032563;28;20587;-61
2021/07/13 03:30:06;;;;;;;92.05;40.40;;;;;;;;;;5018880;28;20123;-62
2021/07/13 03:32:37;;;;;;;100.45;39.97;;;;;;;;;;5016296;28;20036;-62
2021/07/13 03:35:03;;;;;;;107.97;41.85;;;;;;;;;;4999221;28;20144;-61
2021/07/13 03:37:29;;;;;;;106.10;41.10;;;;;;;;;;5016065;28;20025;-61
2021/07/13 03:39:56;;;;;;;91.75;39.60;;;;;;;;;;5015667;28;20039;-63
2021/07/13 03:42:22;;;;;;;98.50;41.78;;;;;;;;;;5031013;28;20036;-61
2021/07/13 03:44:50;;;;;;;101.97;41.10;;;;;;;;;;5012997;28;20110;-62
2021/07/13 03:47:19;;;;;;;102.22;38.88;;;;;;;;;;5033551;28;20033;-63
2021/07/13 03:49:47;;;;;;;104.13;40.55;;;;;;;;;;5030453;28;20040;-62
2021/07/13 03:52:17;;;;;;;103.15;41.95;;;;;;;;;;4994691;28;20065;-61
2021/07/13 03:54:44;;;;;;;103.25;38.83;;;;;;;;;;4997167;28;20028;-62
2021/07/13 03:57:10;;;;;;;106.38;39.55;;;;;;;;;;5033386;28;20522;-61
2021/07/13 03:59:37;;;;;;;101.10;38.65;;;;;;;;;;5033267;28;20024;-61
2021/07/13 04:02:03;;;;;;;117.25;38.78;;;;;;;;;;5013955;28;20048;-62
2021/07/13 04:04:30;;;;;;;100.38;37.20;;;;;;;;;;5015058;28;20047;-61
2021/07/13 04:06:56;;;;;;;104.93;37.97;;;;;;;;;;5029965;28;20037;-61
2021/07/13 04:09:22;;;;;;;86.18;37.10;;;;;;;;;;5030916;28;20111;-61
2021/07/13 04:11:47;;;;;;;97.03;36.80;;;;;;;;;;4994764;28;20653;-61
2021/07/13 04:14:18;;;;;;;93.57;36.40;;;;;;;;;;4998409;28;20156;-62
2021/07/13 04:16:43;;;;;;;83.75;34.25;;;;;;;;;;5016202;28;20033;-61
2021/07/13 04:19:08;;;;;;;86.20;36.42;;;;;;;;;;5014767;28;20036;-61
2021/07/13 04:21:34;;;;;;;82.30;34.58;;;;;;;;;;5014616;28;20044;-62
2021/07/13 04:24:02;;;;;;;80.47;34.72;;;;;;;;;;5013998;28;20163;-62
2021/07/13 04:26:32;;;;;;;81.70;34.78;;;;;;;;;;5033056;28;21976;-62
2021/07/13 04:29:04;;;;;;;83.75;32.78;;;;;;;;;;5032695;28;20063;-62
2021/07/13 04:31:30;;;;;;;79.18;34.00;;;;;;;;;;5014289;28;20040;-61
2021/07/13 04:33:56;;;;;;;76.30;33.42;;;;;;;;;;5002534;28;20029;-62
2021/07/13 04:36:21;;;;;;;79.80;34.33;;;;;;;;;;5033954;28;20078;-64
2021/07/13 04:38:49;;;;;;;84.53;36.97;;;;;;;;;;5033529;28;20037;-62
2021/07/13 04:41:15;;;;;;;80.75;35.17;;;;;;;;;;5015957;28;20506;-62
2021/07/13 04:43:45;;;;;;;76.80;34.20;;;;;;;;;;5032073;28;20091;-63
2021/07/13 04:46:11;;;;;;;75.50;31.77;;;;;;;;;;5016101;28;20044;-63
2021/07/13 04:48:37;;;;;;;72.00;32.22;;;;;;;;;;5031488;28;20098;-63
2021/07/13 04:51:02;;;;;;;69.65;30.30;;;;;;;;;;5014736;28;20039;-63
2021/07/13 04:53:31;;;;;;;61.17;28.70;;;;;;;;;;5013912;28;20175;-62
2021/07/13 04:55:59;;;;;;;65.57;29.38;;;;;;;;;;4982358;28;20071;-63
2021/07/13 04:58:24;;;;;;;55.35;26.30;;;;;;;;;;5014754;28;20032;-64
2021/07/13 05:00:52;;;;;;;50.92;26.83;;;;;;;;;;4990465;28;20409;-63
2021/07/13 05:03:20;;;;;;;55.80;25.50;;;;;;;;;;4997196;28;20049;-63
2021/07/13 05:05:50;;;;;;;51.20;23.40;;;;;;;;;;5014835;28;20036;-64
2021/07/13 05:08:16;;;;;;;44.50;21.63;;;;;;;;;;5012691;28;20138;-65
2021/07/13 05:10:45;;;;;;;38.60;22.30;;;;;;;;;;5033573;28;20036;-63
2021/07/13 05:13:18;;;;;;;54.10;23.90;;;;;;;;;;4997514;28;20037;-63
2021/07/13 05:15:44;;;;;;;37.13;18.85;;;;;;;;;;4989909;28;20029;-63
2021/07/13 05:18:11;;;;;;;39.80;20.08;;;;;;;;;;5032834;28;20087;-63
2021/07/13 05:20:37;;;;;;;43.28;19.90;;;;;;;;;;5002622;28;20029;-62
2021/07/13 05:23:09;;;;;;;42.40;19.17;;;;;;;;;;5017526;28;20124;-63
2021/07/13 05:25:35;;;;;;;38.42;19.40;;;;;;;;;;5038032;28;20043;-63
2021/07/13 05:28:03;;;;;;;46.28;19.52;;;;;;;;;;4989948;28;20041;-63
2021/07/13 05:30:33;;;;;;;42.10;19.08;;;;;;;;;;5001729;28;20091;-63
2021/07/13 05:33:01;;;;;;;42.58;18.90;;;;;;;;;;4996953;28;20060;-62
2021/07/13 05:35:26;;;;;;;51.78;19.98;;;;;;;;;;5018726;28;20563;-63
2021/07/13 05:37:54;;;;;;;52.15;19.05;;;;;;;;;;5001958;28;20036;-63
2021/07/13 05:40:22;;;;;;;41.05;18.45;;;;;;;;;;5018397;28;20040;-64
2021/07/13 05:42:50;;;;;;;41.50;17.67;;;;;;;;;;5034917;28;20073;-64
2021/07/13 05:45:16;;;;;;;42.50;19.08;;;;;;;;;;4999230;28;20081;-63
2021/07/13 05:47:44;;;;;;;42.92;19.25;;;;;;;;;;5015239;28;20041;-64
2021/07/13 05:50:15;;;;;;;36.95;17.15;;;;;;;;;;5014290;28;20080;-63
2021/07/13 05:52:41;;;;;;;35.95;16.40;;;;;;;;;;5014931;28;20061;-63
2021/07/13 05:55:12;;;;;;;42.30;17.00;;;;;;;;;;5014476;28;20168;-63
2021/07/13 05:57:38;;;;;;;29.48;15.88;;;;;;;;;;5015343;28;20559;-63
2021/07/13 06:00:05;;;;;;;44.20;16.60;;;;;;;;;;5013213;28;20639;-63
2021/07/13 06:02:33;;;;;;;27.15;14.80;;;;;;;;;;5014425;28;20108;-64
2021/07/13 06:04:58;;;;;;;30.70;14.20;;;;;;;;;;4996703;28;20083;-64
2021/07/13 06:07:24;;;;;;;26.23;13.20;;;;;;;;;;4996413;28;20098;-64
2021/07/13 06:09:52;;;;;;;23.60;11.90;;;;;;;;;;5012500;28;20033;-63
2021/07/13 06:12:20;;;;;;;22.92;11.75;;;;;;;;;;4986583;28;20029;-63
2021/07/13 06:14:45;;;;;;;20.50;11.52;;;;;;;;;;5012008;28;20033;-63
2021/07/13 06:17:17;;;;;;;18.15;10.20;;;;;;;;;;5030735;28;20579;-64
2021/07/13 06:19:43;;;;;;;20.48;12.38;;;;;;;;;;4996507;28;20047;-64
2021/07/13 06:22:08;;;;;;;21.98;10.73;;;;;;;;;;5017514;28;20033;-63
2021/07/13 06:24:39;;;;;;;18.60;10.32;;;;;;;;;;5015803;28;20705;-63
2021/07/13 06:27:05;;;;;;;19.65;11.60;;;;;;;;;;4996493;28;20502;-62
2021/07/13 06:29:32;;;;;;;17.88;10.48;;;;;;;;;;4979048;28;20700;-62
2021/07/13 06:31:57;;;;;;;17.00;9.75;;;;;;;;;;5012724;28;20041;-63
2021/07/13 06:34:23;;;;;;;16.10;10.20;;;;;;;;;;5012123;28;20036;-62
2021/07/13 06:36:51;;;;;;;18.65;11.15;;;;;;;;;;5015025;28;20033;-63
2021/07/13 06:39:18;;;;;;;19.10;10.80;;;;;;;;;;5014040;28;20885;-64
2021/07/13 06:41:46;;;;;;;17.65;10.18;;;;;;;;;;4981693;28;20045;-64
2021/07/13 06:44:13;;;;;;;17.83;10.45;;;;;;;;;;5017782;28;20756;-63
2021/07/13 06:46:43;;;;;;;16.77;10.20;;;;;;;;;;5014458;28;20052;-63
2021/07/13 06:49:08;;;;;;;17.73;10.40;;;;;;;;;;5033248;28;20044;-63
2021/07/13 06:51:36;;;;;;;20.05;10.73;;;;;;;;;;5017193;28;20079;-64
2021/07/13 06:54:04;;;;;;;19.42;10.45;;;;;;;;;;5034754;28;20048;-62
2021/07/13 06:56:32;;;;;;;18.48;10.40;;;;;;;;;;5033738;28;20032;-63
2021/07/13 06:58:57;;;;;;;21.20;10.10;;;;;;;;;;5033174;28;20071;-64
2021/07/13 07:01:25;;;;;;;17.27;9.55;;;;;;;;;;5032967;28;20020;-64
2021/07/13 07:03:51;;;;;;;16.23;9.77;;;;;;;;;;5034367;28;20554;-63
2021/07/13 07:06:17;;;;;;;24.58;10.88;;;;;;;;;;5034904;28;20033;-63
2021/07/13 07:08:43;;;;;;;21.83;9.82;;;;;;;;;;5033049;28;20037;-63
2021/07/13 07:11:11;;;;;;;16.25;9.52;;;;;;;;;;4998840;28;20543;-63
2021/07/13 07:13:37;;;;;;;16.48;9.02;;;;;;;;;;5033516;28;20041;-63
2021/07/13 07:16:03;;;;;;;16.70;9.05;;;;;;;;;;5015561;28;20041;-63
2021/07/13 07:18:31;;;;;;;16.98;8.88;;;;;;;;;;5001253;28;20099;-63
2021/07/13 07:20:56;;;;;;;14.80;7.32;;;;;;;;;;5034257;28;20484;-62
2021/07/13 07:23:29;;;;;;;13.15;7.82;;;;;;;;;;4992132;28;20036;-63
2021/07/13 07:25:54;;;;;;;19.75;9.40;;;;;;;;;;5000801;28;20115;-63
2021/07/13 07:28:24;;;;;;;12.90;7.65;;;;;;;;;;5014149;28;20036;-62
2021/07/13 07:30:52;;;;;;;13.85;7.60;;;;;;;;;;5000887;28;20041;-63
2021/07/13 07:33:17;;;;;;;12.07;7.85;;;;;;;;;;5032427;28;20091;-64
2021/07/13 07:35:45;;;;;;;13.10;8.10;;;;;;;;;;5015999;28;20512;-64
2021/07/13 07:38:15;;;;;;;13.48;8.68;;;;;;;;;;5020688;28;20479;-63
2021/07/13 07:40:41;;;;;;;13.63;8.48;;;;;;;;;;5032759;28;22195;-63
2021/07/13 07:43:09;;;;;;;13.80;8.20;;;;;;;;;;4998385;28;20033;-63
2021/07/13 07:45:36;;;;;;;13.95;8.18;;;;;;;;;;5031075;28;20053;-63
2021/07/13 07:48:02;;;;;;;13.82;7.90;;;;;;;;;;5031817;28;20047;-64
2021/07/13 07:50:31;;;;;;;14.77;7.85;;;;;;;;;;5033944;28;20687;-63
2021/07/13 07:52:56;;;;;;;11.35;7.25;;;;;;;;;;5033331;28;20036;-64
2021/07/13 07:55:24;;;;;;;15.25;8.50;;;;;;;;;;5032176;28;20059;-64
2021/07/13 07:57:53;;;;;;;13.65;7.82;;;;;;;;;;4998442;28;20158;-64
2021/07/13 08:00:21;;;;;;;13.80;8.25;;;;;;;;;;5031232;28;20033;-65
2021/07/13 08:02:51;;;;;;;17.17;8.00;;;;;;;;;;5034435;28;20051;-64
2021/07/13 08:05:18;;;;;;;15.10;7.97;;;;;;;;;;5014702;28;20029;-64
2021/07/13 08:07:48;;;;;;;18.13;7.72;;;;;;;;;;5034886;28;20392;-64
2021/07/13 08:10:16;;;;;;;17.08;8.23;;;;;;;;;;5013055;28;20476;-63
2021/07/13 08:12:48;;;;;;;11.13;7.40;;;;;;;;;;5001084;28;21933;-64
2021/07/13 08:15:14;;;;;;;12.45;7.13;;;;;;;;;;5014983;28;20048;-64
2021/07/13 08:17:41;;;;;;;12.80;7.38;;;;;;;;;;5032634;28;20091;-64
2021/07/13 08:20:07;;;;;;;9.52;7.32;;;;;;;;;;5015176;28;20062;-64
2021/07/13 08:22:33;;;;;;;10.38;7.15;;;;;;;;;;5015308;28;20044;-65
2021/07/13 08:24:59;;;;;;;14.65;7.22;;;;;;;;;;4998061;28;20516;-63
2021/07/13 08:27:28;;;;;;;11.15;6.78;;;;;;;;;;5032535;28;20039;-64
2021/07/13 08:29:53;;;;;;;9.32;6.25;;;;;;;;;;4998204;28;20112;-64
2021/07/13 08:32:21;;;;;;;8.27;6.43;;;;;;;;;;4997478;28;20071;-63
2021/07/13 08:34:48;;;;;;;10.07;6.18;;;;;;;;;;5032267;28;20045;-64
2021/07/13 08:37:14;;;;;;;12.00;6.07;;;;;;;;;;5016162;28;22081;-64
2021/07/13 08:39:42;;;;;;;10.80;6.00;;;;;;;;;;4986055;28;20717;-64
2021/07/13 08:42:09;;;;;;;9.82;6.10;;;;;;;;;;4999989;28;20098;-64
2021/07/13 08:44:35;;;;;;;12.30;6.68;;;;;;;;;;4984195;28;20108;-64
2021/07/13 08:47:03;;;;;;;10.23;6.03;;;;;;;;;;5011834;28;20488;-63
2021/07/13 08:49:28;;;;;;;9.40;6.07;;;;;;;;;;5010977;28;20082;-62
2021/07/13 08:51:56;;;;;;;8.27;6.05;;;;;;;;;;5013717;28;20038;-64
2021/07/13 08:54:26;;;;;;;10.80;6.75;;;;;;;;;;4994980;28;20037;-63
2021/07/13 08:56:57;;;;;;;10.52;6.50;;;;;;;;;;5014895;28;20535;-63
2021/07/13 08:59:24;;;;;;;16.08;6.90;;;;;;;;;;4999970;28;20057;-64
2021/07/13 09:01:50;;;;;;;9.52;6.30;;;;;;;;;;5000025;28;20037;-64
2021/07/13 09:04:15;;;;;;;10.32;6.65;;;;;;;;;;5015023;28;20118;-64
2021/07/13 09:06:52;;;;;;;10.55;6.25;;;;;;;;;;5016642;28;20029;-64
2021/07/13 09:09:31;;;;;;;12.30;6.40;;;;;;;;;;5002749;28;20033;-64
2021/07/13 09:12:09;;;;;;;8.82;5.72;;;;;;;;;;5015141;28;20029;-64
2021/07/13 09:14:57;;;;;;;9.60;5.88;;;;;;;;;;4998695;28;20082;-64
2021/07/13 09:17:39;;;;;;;9.00;5.82;;;;;;;;;;5017202;28;20863;-63
2021/07/13 09:20:04;;;;;;;10.40;5.32;;;;;;;;;;5016274;28;20116;-64
2021/07/13 09:22:30;;;;;;;8.88;6.43;;;;;;;;;;5016937;28;20029;-65
2021/07/13 09:24:56;;;;;;;10.27;6.70;;;;;;;;;;5015450;28;20091;-64
2021/07/13 09:27:22;;;;;;;8.38;5.35;;;;;;;;;;5014505;28;20542;-64
2021/07/13 09:29:54;;;;;;;7.00;5.78;;;;;;;;;;5013720;28;20124;-64
2021/07/13 09:32:22;;;;;;;8.85;6.30;;;;;;;;;;5014712;28;20033;-64
2021/07/13 09:34:53;;;;;;;9.02;6.15;;;;;;;;;;4999181;28;20026;-63
2021/07/13 09:37:23;;;;;;;10.18;6.10;;;;;;;;;;5012167;28;20026;-64
2021/07/13 09:39:58;;;;;;;10.30;6.60;;;;;;;;;;5016978;28;20037;-64
2021/07/13 09:42:29;;;;;;;11.75;6.13;;;;;;;;;;5014928;28;20042;-64
2021/07/13 09:45:14;;;;;;;9.82;5.80;;;;;;;;;;5017331;28;20091;-65
2021/07/13 09:47:42;;;;;;;8.98;6.13;;;;;;;;;;5003636;28;20044;-65
2021/07/13 09:50:11;;;;;;;10.73;5.85;;;;;;;;;;5017055;28;20086;-64
2021/07/13 09:52:40;;;;;;;11.88;6.93;;;;;;;;;;5035739;28;20068;-65
2021/07/13 09:55:15;;;;;;;10.23;6.25;;;;;;;;;;5017431;28;20116;-64
2021/07/13 09:57:45;;;;;;;15.15;6.70;;;;;;;;;;5021549;28;20021;-64
2021/07/13 10:00:11;;;;;;;9.00;6.05;;;;;;;;;;5001403;28;20037;-64
2021/07/13 10:02:38;;;;;;;16.02;6.53;;;;;;;;;;5033822;28;20039;-65
2021/07/13 10:05:07;;;;;;;12.98;6.82;;;;;;;;;;5033726;28;20333;-65
2021/07/13 10:07:38;;;;;;;13.10;6.70;;;;;;;;;;5034138;28;20603;-65
2021/07/13 10:10:08;;;;;;;20.15;7.40;;;;;;;;;;5034693;28;20120;-65
2021/07/13 10:12:38;;;;;;;11.43;6.47;;;;;;;;;;5034202;28;20132;-63
2021/07/13 10:15:04;;;;;;;10.75;7.22;;;;;;;;;;5034519;28;20074;-64
2021/07/13 10:17:34;;;;;;;11.55;7.28;;;;;;;;;;5017106;28;20107;-64
2021/07/13 10:20:03;;;;;;;15.75;7.55;;;;;;;;;;5017267;28;20029;-65
2021/07/13 10:22:32;;;;;;;13.60;6.65;;;;;;;;;;5035972;28;20166;-64
2021/07/13 10:24:59;;;;;;;18.10;7.68;;;;;;;;;;5017624;28;20467;-64
2021/07/13 10:27:29;;;;;;;15.50;8.00;;;;;;;;;;5033850;28;20650;-63
2021/07/13 10:30:00;;;;;;;12.02;8.45;;;;;;;;;;4995831;28;20040;-64
2021/07/13 10:32:28;;;;;;;14.73;8.85;;;;;;;;;;4991431;28;20559;-64
2021/07/13 10:35:07;;;;;;;19.35;8.43;;;;;;;;;;5002420;28;20035;-64
2021/07/13 10:37:35;;;;;;;13.30;7.82;;;;;;;;;;5017513;28;20032;-65
2021/07/13 10:40:08;;;;;;;14.48;7.78;;;;;;;;;;5032736;28;20028;-65
2021/07/13 10:42:39;;;;;;;16.52;8.73;;;;;;;;;;5017443;28;20063;-63
2021/07/13 10:45:20;;;;;;;12.27;7.47;;;;;;;;;;5032801;28;20029;-65
2021/07/13 10:48:00;;;;;;;15.30;7.65;;;;;;;;;;5033206;28;21965;-65
2021/07/13 10:50:26;;;;;;;17.17;8.38;;;;;;;;;;5035067;28;20045;-64
2021/07/13 10:52:57;;;;;;;15.40;8.90;;;;;;;;;;5015003;28;20052;-64
2021/07/13 10:55:32;;;;;;;19.35;7.20;;;;;;;;;;5017008;28;22090;-64
2021/07/13 10:58:14;;;;;;;13.13;7.68;;;;;;;;;;5019134;28;20066;-64
2021/07/13 11:00:56;;;;;;;20.30;8.20;;;;;;;;;;5016624;28;20476;-66
2021/07/13 11:03:29;;;;;;;19.45;7.93;;;;;;;;;;5014539;28;20040;-64
2021/07/13 11:05:55;;;;;;;18.38;7.60;;;;;;;;;;4996437;28;20037;-65
2021/07/13 11:08:52;;;;;;;16.77;7.55;;;;;;;;;;5034156;28;20865;-64
2021/07/13 11:11:23;;;;;;;18.35;7.70;;;;;;;;;;5001729;28;20041;-64
2021/07/13 11:14:05;;;;;;;27.05;8.48;;;;;;;;;;5013672;28;20052;-64
2021/07/13 11:16:33;;;;;;;20.02;8.85;;;;;;;;;;5016861;28;20177;-64
2021/07/13 11:19:02;;;;;;;16.73;9.20;;;;;;;;;;5033747;28;20024;-64
2021/07/13 11:21:32;;;;;;;23.20;9.27;;;;;;;;;;5000741;28;20057;-63
2021/07/13 11:24:03;;;;;;;17.73;9.77;;;;;;;;;;5031345;28;20036;-64
2021/07/13 11:26:32;;;;;;;22.60;10.68;;;;;;;;;;5015714;28;20032;-63
2021/07/13 11:28:58;;;;;;;23.60;11.60;;;;;;;;;;5032396;28;20041;-65
2021/07/13 11:31:26;;;;;;;24.10;11.82;;;;;;;;;;5032149;28;20044;-64
2021/07/13 11:34:04;;;;;;;34.40;13.70;;;;;;;;;;5032332;28;20112;-64
2021/07/13 11:36:34;;;;;;;24.88;14.23;;;;;;;;;;5032721;28;20029;-65
2021/07/13 11:39:03;;;;;;;27.70;15.23;;;;;;;;;;5015866;28;20029;-63
2021/07/13 11:41:33;;;;;;;37.20;14.95;;;;;;;;;;5034186;28;20040;-63
2021/07/13 11:44:03;;;;;;;33.08;15.90;;;;;;;;;;5032020;28;20756;-63
2021/07/13 11:46:34;;;;;;;33.30;15.73;;;;;;;;;;5034630;28;20850;-64
2021/07/13 11:49:05;;;;;;;34.75;16.67;;;;;;;;;;5031992;28;20120;-63
2021/07/13 11:51:50;;;;;;;34.05;17.10;;;;;;;;;;5014589;28;20175;-65
2021/07/13 11:54:18;;;;;;;39.33;18.42;;;;;;;;;;5015064;28;20108;-64
2021/07/13 11:56:47;;;;;;;33.15;17.30;;;;;;;;;;5013927;28;20024;-62
2021/07/13 11:59:19;;;;;;;34.28;16.77;;;;;;;;;;5013544;28;20020;-63
2021/07/13 12:01:57;;;;;;;31.80;16.15;;;;;;;;;;5033200;28;20641;-62
2021/07/13 12:04:23;;;;;;;25.40;15.05;;;;;;;;;;5015257;28;21885;-61
2021/07/13 12:06:50;;;;;;;28.02;14.90;;;;;;;;;;5034115;28;20468;-61
2021/07/13 12:09:23;;;;;;;25.60;15.02;;;;;;;;;;5033238;28;20025;-64
2021/07/13 12:11:51;;;;;;;30.90;14.55;;;;;;;;;;5032337;28;20021;-63
2021/07/13 12:14:19;;;;;;;32.53;14.73;;;;;;;;;;5013283;28;20029;-64
2021/07/13 12:16:50;;;;;;;33.22;14.98;;;;;;;;;;5030897;28;20073;-64
2021/07/13 12:19:19;;;;;;;34.45;14.35;;;;;;;;;;4997625;28;20143;-63
2021/07/13 12:21:47;;;;;;;31.48;14.80;;;;;;;;;;5016410;28;20025;-62
2021/07/13 12:24:18;;;;;;;29.65;15.23;;;;;;;;;;5032574;28;20865;-62
2021/07/13 12:26:49;;;;;;;36.65;15.23;;;;;;;;;;5014935;28;20036;-59
2021/07/13 12:29:20;;;;;;;34.17;14.70;;;;;;;;;;5031934;28;20041;-58
2021/07/13 12:31:50;;;;;;;32.10;14.05;;;;;;;;;;5013527;28;20051;-59
2021/07/13 12:34:16;;;;;;;28.40;14.30;;;;;;;;;;5015352;28;20049;-60
2021/07/13 12:36:44;;;;;;;25.85;13.32;;;;;;;;;;5030971;28;20033;-59
2021/07/13 12:39:15;;;;;;;26.25;14.00;;;;;;;;;;5014791;28;20611;-59
2021/07/13 12:41:41;;;;;;;22.88;13.65;;;;;;;;;;5033896;28;20092;-59
2021/07/13 12:44:28;;;;;;;23.98;13.23;;;;;;;;;;5032257;28;20033;-58
2021/07/13 12:46:53;;;;;;;23.90;12.05;;;;;;;;;;5031759;28;20772;-58
2021/07/13 12:49:19;;;;;;;26.50;13.38;;;;;;;;;;4996734;28;20037;-58
2021/07/13 12:51:46;;;;;;;24.27;13.63;;;;;;;;;;5034067;28;20029;-59
2021/07/13 12:54:14;;;;;;;27.33;14.38;;;;;;;;;;5014018;28;20029;-58
2021/07/13 12:56:42;;;;;;;32.78;14.25;;;;;;;;;;5017839;28;20705;-57
2021/07/13 12:59:10;;;;;;;32.50;14.68;;;;;;;;;;5032194;28;20028;-56
2021/07/13 13:01:39;;;;;;;30.17;14.10;;;;;;;;;;5032492;28;20142;-59
2021/07/13 13:04:11;;;;;;;28.80;13.55;;;;;;;;;;5032627;28;20143;-59
2021/07/13 13:06:39;;;;;;;28.10;12.82;;;;;;;;;;5032065;28;20687;-59
2021/07/13 13:09:12;;;;;;;28.27;12.93;;;;;;;;;;5014620;28;20055;-58
2021/07/13 13:11:41;;;;;;;34.20;11.93;;;;;;;;;;5032492;28;20032;-58
2021/07/13 13:14:09;;;;;;;26.65;10.75;;;;;;;;;;5032210;28;20028;-58
2021/07/13 13:16:43;;;;;;;29.02;12.07;;;;;;;;;;5013625;28;20033;-57
2021/07/13 13:19:14;;;;;;;28.33;12.38;;;;;;;;;;5001457;28;20029;-59
2021/07/13 13:21:41;;;;;;;26.40;11.63;;;;;;;;;;5032693;28;20041;-57
2021/07/13 13:24:14;;;;;;;22.92;11.23;;;;;;;;;;5030705;28;20742;-57
2021/07/13 13:26:43;;;;;;;26.13;11.68;;;;;;;;;;5033712;28;20040;-57
2021/07/13 13:29:13;;;;;;;26.98;11.52;;;;;;;;;;5014246;28;20033;-55
2021/07/13 13:31:39;;;;;;;24.25;12.63;;;;;;;;;;5014222;28;20091;-57
2021/07/13 13:34:05;;;;;;;32.50;13.40;;;;;;;;;;5014996;28;20094;-56
2021/07/13 13:36:33;;;;;;;27.08;11.80;;;;;;;;;;5032163;28;20617;-55
2021/07/13 13:41:33;;;;;;;29.90;14.07;;;;;;;;;;5032787;28;20033;-54
2021/07/13 13:44:01;;;;;;;32.47;13.75;;;;;;;;;;4986163;28;20057;-54
2021/07/13 13:46:32;;;;;;;27.38;13.65;;;;;;;;;;5034208;28;20107;-53
2021/07/13 13:48:58;;;;;;;32.25;13.50;;;;;;;;;;5032928;28;20041;-53
2021/07/13 13:51:24;;;;;;;32.08;13.55;;;;;;;;;;5037116;28;20150;-53
2021/07/13 13:53:49;;;;;;;30.58;13.27;;;;;;;;;;5034866;28;20119;-51
2021/07/13 13:56:15;;;;;;;29.38;13.57;;;;;;;;;;5032818;28;20159;-55
2021/07/13 13:58:43;;;;;;;36.95;13.52;;;;;;;;;;5035647;28;20025;-53
2021/07/13 14:01:12;;;;;;;29.92;12.93;;;;;;;;;;5016690;28;20033;-56
2021/07/13 14:03:38;;;;;;;30.48;12.63;;;;;;;;;;5001844;28;20040;-55
2021/07/13 14:06:12;;;;;;;29.88;11.20;;;;;;;;;;5036451;28;20405;-55
2021/07/13 14:08:41;;;;;;;34.25;12.10;;;;;;;;;;5034799;28;20083;-53
2021/07/13 14:11:08;;;;;;;29.27;12.35;;;;;;;;;;5034186;28;20041;-53
2021/07/13 14:13:36;;;;;;;30.77;13.18;;;;;;;;;;5018938;28;20033;-53
2021/07/13 14:16:04;;;;;;;38.20;13.27;;;;;;;;;;5018237;28;20036;-54
2021/07/13 14:18:35;;;;;;;32.25;11.75;;;;;;;;;;5034913;28;20033;-54
2021/07/13 14:21:02;;;;;;;32.88;13.07;;;;;;;;;;5017658;28;20029;-54
2021/07/13 14:23:33;;;;;;;34.53;12.85;;;;;;;;;;5018156;28;20888;-54
2021/07/13 14:25:58;;;;;;;32.78;13.05;;;;;;;;;;5032932;28;20068;-55
2021/07/13 14:28:24;;;;;;;29.20;12.35;;;;;;;;;;5034228;28;22124;-55
2021/07/13 14:30:50;;;;;;;32.88;12.75;;;;;;;;;;5035212;28;20025;-54
2021/07/13 14:33:15;;;;;;;28.77;13.50;;;;;;;;;;5016419;28;20041;-57